Map

Track Data

SID SEASON NUMBER BASIN SUBBASIN NAME ISO_TIME NATURE LAT LON WMO_WIND WMO_PRES WMO_AGENCY TRACK_TYPE DIST2LAND LANDFALL IFLAG USA_AGENCY USA_ATCF_ID USA_LAT USA_LON USA_RECORD USA_STATUS USA_WIND USA_PRES USA_SSHS USA_R34_NE USA_R34_SE USA_R34_SW USA_R34_NW USA_R50_NE USA_R50_SE USA_R50_SW USA_R50_NW USA_R64_NE USA_R64_SE USA_R64_SW USA_R64_NW USA_POCI USA_ROCI USA_RMW USA_EYE TOKYO_LAT TOKYO_LON TOKYO_GRADE TOKYO_WIND TOKYO_PRES TOKYO_R50_DIR TOKYO_R50_LONG TOKYO_R50_SHORT TOKYO_R30_DIR TOKYO_R30_LONG TOKYO_R30_SHORT TOKYO_LAND CMA_LAT CMA_LON CMA_CAT CMA_WIND CMA_PRES HKO_LAT HKO_LON HKO_CAT HKO_WIND HKO_PRES NEWDELHI_LAT NEWDELHI_LON NEWDELHI_GRADE NEWDELHI_WIND NEWDELHI_PRES NEWDELHI_CI NEWDELHI_DP NEWDELHI_POCI REUNION_LAT REUNION_LON REUNION_TYPE REUNION_WIND REUNION_PRES REUNION_TNUM REUNION_CI REUNION_RMW REUNION_R34_NE REUNION_R34_SE REUNION_R34_SW REUNION_R34_NW REUNION_R50_NE REUNION_R50_SE REUNION_R50_SW REUNION_R50_NW REUNION_R64_NE REUNION_R64_SE REUNION_R64_SW REUNION_R64_NW BOM_LAT BOM_LON BOM_TYPE BOM_WIND BOM_PRES BOM_TNUM BOM_CI BOM_RMW BOM_R34_NE BOM_R34_SE BOM_R34_SW BOM_R34_NW BOM_R50_NE BOM_R50_SE BOM_R50_SW BOM_R50_NW BOM_R64_NE BOM_R64_SE BOM_R64_SW BOM_R64_NW BOM_ROCI BOM_POCI BOM_EYE BOM_POS_METHOD BOM_PRES_METHOD NADI_LAT NADI_LON NADI_CAT NADI_WIND NADI_PRES WELLINGTON_LAT WELLINGTON_LON WELLINGTON_WIND WELLINGTON_PRES DS824_LAT DS824_LON DS824_STAGE DS824_WIND DS824_PRES TD9636_LAT TD9636_LON TD9636_STAGE TD9636_WIND TD9636_PRES TD9635_LAT TD9635_LON TD9635_WIND TD9635_PRES TD9635_ROCI NEUMANN_LAT NEUMANN_LON NEUMANN_CLASS NEUMANN_WIND NEUMANN_PRES MLC_LAT MLC_LON MLC_CLASS MLC_WIND MLC_PRES USA_GUST BOM_GUST BOM_GUST_PER REUNION_GUST REUNION_GUST_PER USA_SEAHGT USA_SEARAD_NE USA_SEARAD_SE USA_SEARAD_SW USA_SEARAD_NW STORM_SPEED STORM_DIR
1988160N14074 1988 26 NI AS NOT_NAMED 1988-06-08 00:00:00 NR 14.2000 73.6000 main 86 72 O_________O___ jtwc_io IO011988 14.2000 73.6000 25 -1 14.2000 73.6000 1 25 9 335
1988160N14074 1988 26 NI AS NOT_NAMED 1988-06-08 03:00:00 NR 14.6147 73.4048 main 77 68 P_________P___ IO011988 14.5950 73.4076 25 -1 14.6344 73.4020 1 25 9 335
1988160N14074 1988 26 NI AS NOT_NAMED 1988-06-08 06:00:00 NR 15.0275 73.1965 main 76 72 O_________P___ jtwc_io IO011988 15.0000 73.2000 25 -1 15.0550 73.1929 1 25 9 332
1988160N14074 1988 26 NI AS NOT_NAMED 1988-06-08 09:00:00 NR 15.4315 72.9637 main 78 78 P_________P___ IO011988 15.4150 72.9650 25 -1 15.4481 72.9624 1 25 9 328
1988160N14074 1988 26 NI AS NOT_NAMED 1988-06-08 12:00:00 NR 15.8000 72.7000 main 91 88 O_________O___ jtwc_io IO011988 15.8000 72.7000 25 -1 15.8000 72.7000 1 25 9 322
1988160N14074 1988 26 NI AS NOT_NAMED 1988-06-08 15:00:00 NR 16.1186 72.4073 main 106 101 P_________P___ IO011988 16.1374 72.4150 25 -1 16.0997 72.3997 1 26 8 314
1988160N14074 1988 26 NI AS NOT_NAMED 1988-06-08 18:00:00 NR 16.3738 72.0863 main 128 128 O_________P___ jtwc_io IO011988 16.4000 72.1000 25 -1 16.3476 72.0725 1 27 8 305
1988160N14074 1988 26 NI AS NOT_NAMED 1988-06-08 21:00:00 NR 16.5633 71.7458 main 170 170 P_________P___ IO011988 16.5800 71.7574 27 -1 16.5466 71.7341 1 28 7 296
1988160N14074 1988 26 NI AS NOT_NAMED 1988-06-09 00:00:00 NR 16.7000 71.4000 main 202 202 O_________O___ jtwc_io IO011988 16.7000 71.4000 30 -1 16.7000 71.4000 1 30 7 292
1988160N14074 1988 26 NI AS NOT_NAMED 1988-06-09 03:00:00 NR 16.8247 71.0557 main 230 230 P_________P___ IO011988 16.8150 71.0350 32 -1 16.8343 71.0763 1 31 7 288
1988160N14074 1988 26 NI AS NOT_NAMED 1988-06-09 06:00:00 NR 16.9125 70.7311 main 266 266 O_________P___ jtwc_io IO011988 16.9000 70.7000 35 0 16.9250 70.7623 1 32 6 284
1988160N14074 1988 26 NI AS NOT_NAMED 1988-06-09 09:00:00 NR 16.9715 70.4473 main 294 294 P_________P___ IO011988 16.9649 70.4275 35 0 16.9781 70.4671 1 33 5 280
1988160N14074 1988 26 NI AS NOT_NAMED 1988-06-09 12:00:00 NR 17.0000 70.2000 main 315 315 O_________O___ jtwc_io IO011988 17.0000 70.2000 35 0 17.0000 70.2000 2 35 4 275
1988160N14074 1988 26 NI AS NOT_NAMED 1988-06-09 15:00:00 NR 17.0133 69.9818 main 335 335 P_________P___ IO011988 17.0150 69.9925 35 0 17.0116 69.9711 2 35 4 270
1988160N14074 1988 26 NI AS NOT_NAMED 1988-06-09 18:00:00 NR 16.9974 69.7849 main 354 354 O_________P___ jtwc_io IO011988 17.0000 69.8000 35 0 16.9947 69.7699 2 35 4 261
1988160N14074 1988 26 NI AS NOT_NAMED 1988-06-09 21:00:00 NR 16.9565 69.5918 main 374 374 P_________P___ IO011988 16.9575 69.6000 35 0 16.9554 69.5837 2 35 4 255
1988160N14074 1988 26 NI AS NOT_NAMED 1988-06-10 00:00:00 NR 16.9000 69.4000 main 398 398 O_________O___ jtwc_io IO011988 16.9000 69.4000 35 0 16.9000 69.4000 2 35 4 255
1988160N14074 1988 26 NI AS NOT_NAMED 1988-06-10 03:00:00 NR 16.8505 69.1756 main 418 418 P_________P___ IO011988 16.8575 69.2000 35 0 16.8436 69.1511 2 35 4 255
1988160N14074 1988 26 NI AS NOT_NAMED 1988-06-10 06:00:00 NR 16.7863 68.9549 main 442 442 O_________P___ jtwc_io IO011988 16.8000 69.0000 35 0 16.7727 68.9098 2 35 4 251
1988160N14074 1988 26 NI AS NOT_NAMED 1988-06-10 09:00:00 NR 16.7027 68.7380 main 476 476 P_________P___ IO011988 16.7150 68.7624 35 0 16.6904 68.7136 2 35 4 241
1988160N14074 1988 26 NI AS NOT_NAMED 1988-06-10 12:00:00 NR 16.6000 68.6000 main 490 490 O_________O___ jtwc_io IO011988 16.6000 68.6000 35 0 16.6000 68.6000 2 35 3 211
1988160N14074 1988 26 NI AS NOT_NAMED 1988-06-10 15:00:00 NR 16.4666 68.5976 main 494 486 P_________P___ IO011988 16.4425 68.5976 35 0 16.4908 68.5977 2 35 3 161
1988160N14074 1988 26 NI AS NOT_NAMED 1988-06-10 18:00:00 NR 16.3387 68.6901 main 490 480 O_________P___ jtwc_io IO011988 16.3000 68.7000 35 0 16.3773 68.6803 2 35 3 135
1988160N14074 1988 26 NI AS NOT_NAMED 1988-06-10 21:00:00 NR 16.2551 68.8213 main 480 460 P_________P___ IO011988 16.2350 68.8200 35 0 16.2752 68.8227 2 35 3 115
1988160N14074 1988 26 NI AS NOT_NAMED 1988-06-11 00:00:00 NR 16.2000 69.0000 main 460 438 O_________O___ jtwc_io IO011988 16.2000 69.0000 35 0 16.2000 69.0000 2 35 4 106
1988160N14074 1988 26 NI AS NOT_NAMED 1988-06-11 03:00:00 NR 16.1491 69.2147 main 439 418 P_________P___ IO011988 16.1351 69.2501 35 0 16.1632 69.1793 2 35 4 100
1988160N14074 1988 26 NI AS NOT_NAMED 1988-06-11 06:00:00 NR 16.1276 69.4425 main 418 397 O_________P___ jtwc_io IO011988 16.1000 69.5000 35 0 16.1551 69.3850 2 35 4 90
1988160N14074 1988 26 NI AS NOT_NAMED 1988-06-11 09:00:00 NR 16.1522 69.6278 main 396 375 P_________P___ IO011988 16.1349 69.6575 35 0 16.1695 69.5981 2 35 4 78
1988160N14074 1988 26 NI AS NOT_NAMED 1988-06-11 12:00:00 NR 16.2000 69.8000 main 375 353 O_________O___ jtwc_io IO011988 16.2000 69.8000 35 0 16.2000 69.8000 2 35 4 76
1988160N14074 1988 26 NI AS NOT_NAMED 1988-06-11 15:00:00 NR 16.2408 69.9859 main 353 342 P_________P___ IO011988 16.2500 70.0075 35 0 16.2315 69.9644 2 35 4 75
1988160N14074 1988 26 NI AS NOT_NAMED 1988-06-11 18:00:00 NR 16.2887 70.1575 main 331 320 O_________P___ jtwc_io IO011988 16.3000 70.2000 35 0 16.2774 70.1150 2 35 3 71
1988160N14074 1988 26 NI AS NOT_NAMED 1988-06-11 21:00:00 NR 16.3385 70.2828 main 320 309 P_________P___ IO011988 16.3425 70.3075 35 0 16.3346 70.2581 2 35 3 65
1988160N14074 1988 26 NI AS NOT_NAMED 1988-06-12 00:00:00 NR 16.4000 70.4000 main 309 298 O_________O___ jtwc_io IO011988 16.4000 70.4000 35 0 16.4000 70.4000 2 35 3 61
1988160N14074 1988 26 NI AS NOT_NAMED 1988-06-12 03:00:00 NR 16.4813 70.5462 main 298 277 P_________P___ IO011988 16.5000 70.5425 30 -1 16.4626 70.5500 2 32 3 60
1988160N14074 1988 26 NI AS NOT_NAMED 1988-06-12 06:00:00 NR 16.5665 70.7000 main 277 266 O_________P___ jtwc_io IO011988 16.6000 70.7000 25 -1 16.5329 70.7000 2 30 3 63
1988160N14074 1988 26 NI AS NOT_NAMED 1988-06-12 09:00:00 NR 16.6309 70.8500 main 255 244 P_________P___ IO011988 16.6500 70.8500 25 -1 16.6118 70.8500 2 27 3 65
1988160N14074 1988 26 NI AS NOT_NAMED 1988-06-12 12:00:00 NR 16.7000 71.0000 main 244 230 O_________O___ jtwc_io IO011988 16.7000 71.0000 25 -1 16.7000 71.0000 1 25 3 61
1988160N14074 1988 26 NI AS NOT_NAMED 1988-06-12 15:00:00 NR 16.7925 71.1500 main 230 206 P_________P___ IO011988 16.7875 71.1499 25 -1 16.7975 71.1500 1 25 4 55
1988160N14074 1988 26 NI AS NOT_NAMED 1988-06-12 18:00:00 NR 16.9000 71.3000 main 206 O_________O___ jtwc_io IO011988 16.9000 71.3000 25 -1 16.9000 71.3000 1 25 4 53

About IBTrACS Database

This database is a web-friendly format of International Best Track Archive for Climate Stewardship (IBTrACS), a global best track data archive curated by NOAA dating back to 1842.

Updated: 2021-11-26